Time;durP1;ratioP1;P1;durP2;ratioP2;P2;SDS_P1;SDS_P2;PMS_P1;PMS_P2;Temp;Humidity;BMP_temperature;BMP_pressure;BME280_temperature;BME280_humidity;BME280_pressure;Samples;Min_cycle;Max_cycle;Signal;HPM_P1;HPM_P2
2021/01/28 00:01:26;;;;;;;34.50;19.33;;;7.00;99.90;;;;;;5032013;28;20832;-64
2021/01/28 00:03:53;;;;;;;29.60;19.00;;;7.00;99.90;;;;;;5032069;28;20445;-65
2021/01/28 00:06:19;;;;;;;30.07;19.80;;;6.90;99.90;;;;;;5031941;28;20465;-64
2021/01/28 00:08:45;;;;;;;28.30;18.83;;;6.90;99.90;;;;;;5031919;28;20531;-64
2021/01/28 00:11:11;;;;;;;30.60;19.80;;;6.90;99.90;;;;;;5031747;28;20934;-64
2021/01/28 00:13:38;;;;;;;25.17;19.43;;;6.90;99.90;;;;;;5031948;28;20452;-65
2021/01/28 00:16:05;;;;;;;21.63;17.03;;;6.90;99.90;;;;;;5031883;28;20461;-64
2021/01/28 00:18:32;;;;;;;27.13;16.93;;;6.90;99.90;;;;;;5031913;28;20441;-64
2021/01/28 00:20:58;;;;;;;22.53;17.50;;;6.90;99.90;;;;;;5031656;28;20442;-64
2021/01/28 00:23:24;;;;;;;29.80;18.03;;;6.80;99.90;;;;;;5031842;28;20445;-64
2021/01/28 00:25:50;;;;;;;31.63;19.27;;;6.80;99.90;;;;;;5031856;28;20472;-64
2021/01/28 00:28:20;;;;;;;27.07;19.10;;;6.80;99.90;;;;;;5031691;28;21053;-64
2021/01/28 00:30:48;;;;;;;26.30;18.13;;;6.90;99.90;;;;;;5031702;28;20445;-64
2021/01/28 00:33:17;;;;;;;26.90;17.80;;;6.80;99.90;;;;;;5031748;28;20960;-64
2021/01/28 00:35:46;;;;;;;28.43;18.00;;;6.80;99.90;;;;;;5031547;28;20473;-64
2021/01/28 00:38:15;;;;;;;27.23;18.40;;;6.80;99.90;;;;;;5031755;28;20460;-64
2021/01/28 00:40:41;;;;;;;29.20;18.43;;;6.80;99.90;;;;;;5031505;28;20445;-64
2021/01/28 00:43:08;;;;;;;31.60;17.97;;;6.80;99.90;;;;;;5031654;28;20453;-64
2021/01/28 00:45:34;;;;;;;30.53;19.63;;;6.80;99.90;;;;;;5031578;28;20467;-63
2021/01/28 00:48:02;;;;;;;38.13;19.80;;;6.80;99.90;;;;;;5031589;28;20477;-63
2021/01/28 00:50:30;;;;;;;28.50;17.57;;;6.80;99.90;;;;;;5031457;28;20453;-63
2021/01/28 00:52:58;;;;;;;23.17;16.93;;;6.80;99.90;;;;;;5031595;28;20522;-63
2021/01/28 00:55:25;;;;;;;28.23;17.40;;;6.80;99.90;;;;;;5031583;28;20966;-63
2021/01/28 00:57:51;;;;;;;25.73;17.50;;;6.90;99.90;;;;;;5031581;28;20503;-63
2021/01/28 01:00:22;;;;;;;20.90;16.40;;;6.90;99.90;;;;;;5031257;28;20464;-63
2021/01/28 01:02:48;;;;;;;28.47;18.00;;;7.00;99.90;;;;;;5032478;28;20444;-63
2021/01/28 01:05:17;;;;;;;29.73;18.67;;;7.00;99.90;;;;;;5035513;28;20483;-63
2021/01/28 01:07:45;;;;;;;25.77;18.33;;;7.00;99.90;;;;;;5035390;28;20488;-63
2021/01/28 01:10:23;;;;;;;21.10;15.97;;;7.00;99.90;;;;;;5035239;28;20445;-63
2021/01/28 01:12:49;;;;;;;24.00;17.07;;;7.00;99.90;;;;;;5035436;28;20794;-63
2021/01/28 01:15:16;;;;;;;27.80;16.77;;;7.00;99.90;;;;;;5035208;28;20464;-63
2021/01/28 01:17:42;;;;;;;28.13;16.20;;;7.00;99.90;;;;;;5035339;28;20803;-63
2021/01/28 01:20:09;;;;;;;26.87;19.00;;;7.00;99.90;;;;;;5035145;28;21004;-63
2021/01/28 01:22:36;;;;;;;21.40;16.03;;;7.10;99.90;;;;;;5035072;28;20460;-63
2021/01/28 01:25:02;;;;;;;26.00;17.90;;;7.10;99.90;;;;;;5035201;28;20479;-63
2021/01/28 01:27:29;;;;;;;25.07;17.03;;;7.10;99.90;;;;;;5034999;28;20476;-63
2021/01/28 01:29:55;;;;;;;24.70;16.27;;;7.00;99.90;;;;;;5034756;28;20511;-64
2021/01/28 01:32:22;;;;;;;24.60;17.03;;;7.10;99.90;;;;;;5034985;28;20453;-63
2021/01/28 01:34:48;;;;;;;27.63;17.67;;;7.10;99.90;;;;;;5034763;28;20499;-63
2021/01/28 01:37:14;;;;;;;26.10;18.53;;;7.10;99.90;;;;;;5034821;28;20445;-63
2021/01/28 01:39:40;;;;;;;28.57;16.63;;;7.10;99.90;;;;;;5034693;28;20449;-63
2021/01/28 01:42:07;;;;;;;24.37;16.73;;;7.00;99.90;;;;;;5034857;28;20476;-63
2021/01/28 01:44:34;;;;;;;23.30;16.13;;;7.00;99.90;;;;;;5034608;28;20457;-63
2021/01/28 01:47:10;;;;;;;30.43;17.67;;;7.00;99.90;;;;;;5034707;28;20958;-63
2021/01/28 01:49:36;;;;;;;30.47;17.83;;;7.00;99.90;;;;;;5034490;28;20498;-63
2021/01/28 01:52:02;;;;;;;28.17;16.87;;;6.90;99.90;;;;;;5034617;28;20445;-63
2021/01/28 01:54:34;;;;;;;22.50;15.60;;;7.00;99.90;;;;;;5034613;28;20444;-63
2021/01/28 01:57:02;;;;;;;24.77;16.83;;;6.90;99.90;;;;;;5034559;28;20793;-63
2021/01/28 01:59:35;;;;;;;25.90;16.77;;;7.00;99.90;;;;;;5034557;28;20437;-64
2021/01/28 02:02:05;;;;;;;27.47;19.23;;;6.90;99.90;;;;;;5034401;28;20460;-63
2021/01/28 02:04:33;;;;;;;24.23;16.90;;;6.90;99.90;;;;;;5034336;28;20794;-63
2021/01/28 02:07:05;;;;;;;28.17;18.50;;;7.00;99.90;;;;;;5034417;28;20436;-63
2021/01/28 02:09:31;;;;;;;27.17;17.73;;;6.90;99.90;;;;;;5034074;28;20480;-63
2021/01/28 02:11:58;;;;;;;26.50;18.43;;;6.90;99.90;;;;;;5034121;28;20449;-63
2021/01/28 02:14:26;;;;;;;25.50;17.00;;;7.00;99.90;;;;;;5033441;28;20445;-62
2021/01/28 02:16:56;;;;;;;23.90;16.20;;;7.00;99.90;;;;;;5034122;28;20448;-63
2021/01/28 02:19:35;;;;;;;29.90;15.80;;;7.00;99.90;;;;;;5034267;28;20517;-61
2021/01/28 02:22:02;;;;;;;23.57;15.37;;;7.00;99.90;;;;;;5034259;28;20445;-61
2021/01/28 02:24:35;;;;;;;26.87;18.90;;;7.00;99.90;;;;;;5034040;28;20861;-63
2021/01/28 02:27:07;;;;;;;30.40;16.77;;;6.90;99.90;;;;;;5034100;28;20448;-63
2021/01/28 02:29:33;;;;;;;26.93;15.73;;;6.90;99.90;;;;;;5033748;28;20476;-63
2021/01/28 02:32:00;;;;;;;21.07;14.57;;;6.90;99.90;;;;;;5033869;28;20960;-63
2021/01/28 02:34:26;;;;;;;20.97;15.20;;;6.90;99.90;;;;;;5033952;28;20456;-63
2021/01/28 02:36:55;;;;;;;19.77;14.93;;;6.80;99.90;;;;;;5033863;28;20437;-63
2021/01/28 02:39:23;;;;;;;24.00;15.53;;;6.80;99.90;;;;;;5033885;28;20980;-63
2021/01/28 02:41:56;;;;;;;19.83;13.90;;;6.80;99.90;;;;;;5033639;28;20457;-63
2021/01/28 02:44:24;;;;;;;18.70;14.87;;;6.80;99.90;;;;;;5033720;28;20444;-63
2021/01/28 02:46:50;;;;;;;26.60;16.07;;;6.80;99.90;;;;;;5033613;28;20784;-63
2021/01/28 02:49:17;;;;;;;22.53;13.53;;;6.80;99.90;;;;;;5033646;28;20485;-63
2021/01/28 02:51:43;;;;;;;20.83;14.80;;;6.80;99.90;;;;;;5033329;28;20441;-63
2021/01/28 02:54:10;;;;;;;19.73;14.20;;;6.80;99.90;;;;;;5033495;28;20452;-63
2021/01/28 02:56:37;;;;;;;23.80;15.07;;;6.80;99.90;;;;;;5033371;28;20870;-63
2021/01/28 02:59:04;;;;;;;23.47;15.30;;;6.80;99.90;;;;;;5033285;28;20452;-63
2021/01/28 03:01:32;;;;;;;21.10;14.90;;;6.80;99.90;;;;;;5033257;28;20930;-63
2021/01/28 03:03:58;;;;;;;21.13;15.60;;;6.80;99.90;;;;;;5033208;28;20451;-63
2021/01/28 03:06:24;;;;;;;20.50;14.53;;;6.80;99.90;;;;;;5033112;28;20469;-62
2021/01/28 03:08:51;;;;;;;23.77;14.93;;;6.80;99.90;;;;;;5033004;28;20484;-63
2021/01/28 03:11:17;;;;;;;19.80;13.27;;;6.80;99.90;;;;;;5032821;28;20922;-63
2021/01/28 03:13:43;;;;;;;18.33;12.47;;;6.80;99.90;;;;;;5032839;28;20449;-63
2021/01/28 03:16:10;;;;;;;15.00;11.87;;;6.70;99.90;;;;;;5032895;28;20484;-62
2021/01/28 03:18:37;;;;;;;23.27;16.70;;;6.70;99.90;;;;;;5033065;28;20441;-63
2021/01/28 03:21:04;;;;;;;14.40;12.13;;;6.70;99.90;;;;;;5032790;28;20445;-63
2021/01/28 03:23:30;;;;;;;21.60;16.50;;;6.70;99.90;;;;;;5032852;28;20441;-63
2021/01/28 03:25:56;;;;;;;16.07;12.97;;;6.70;99.90;;;;;;5032669;28;20477;-63
2021/01/28 03:28:22;;;;;;;17.57;13.23;;;6.70;99.90;;;;;;5032700;28;20546;-63
2021/01/28 03:30:50;;;;;;;20.30;12.90;;;6.60;99.90;;;;;;5032550;28;20483;-63
2021/01/28 03:33:20;;;;;;;20.00;14.90;;;6.60;99.90;;;;;;5032527;28;20519;-63
2021/01/28 03:35:47;;;;;;;15.33;12.33;;;6.60;99.90;;;;;;5032604;28;20477;-63
2021/01/28 03:38:14;;;;;;;18.30;12.43;;;6.60;99.90;;;;;;5032592;28;20515;-63
2021/01/28 03:40:41;;;;;;;22.30;12.47;;;6.60;99.90;;;;;;5032416;28;20583;-63
2021/01/28 03:43:07;;;;;;;20.13;11.30;;;6.60;99.90;;;;;;5032569;28;20453;-63
2021/01/28 03:45:34;;;;;;;20.10;12.80;;;6.50;99.90;;;;;;5032370;28;20472;-63
2021/01/28 03:48:01;;;;;;;20.60;13.43;;;6.60;99.90;;;;;;5032508;28;20966;-63
2021/01/28 03:50:30;;;;;;;17.70;13.13;;;6.50;99.90;;;;;;5032200;28;20483;-63
2021/01/28 03:52:57;;;;;;;17.30;12.87;;;6.50;99.90;;;;;;5032385;28;20464;-63
2021/01/28 03:55:23;;;;;;;14.00;10.50;;;6.40;99.90;;;;;;5032215;28;20468;-63
2021/01/28 03:57:51;;;;;;;19.23;13.20;;;6.40;99.90;;;;;;5032291;28;20476;-63
2021/01/28 04:00:19;;;;;;;16.93;12.17;;;6.40;99.90;;;;;;5032008;28;20504;-63
2021/01/28 04:02:46;;;;;;;16.50;11.70;;;6.30;99.90;;;;;;5032316;28;20445;-63
2021/01/28 04:05:13;;;;;;;12.27;10.20;;;6.30;99.90;;;;;;5032039;28;20815;-63
2021/01/28 04:07:39;;;;;;;19.27;11.93;;;6.30;99.90;;;;;;5032048;28;20954;-63
2021/01/28 04:10:09;;;;;;;21.63;11.40;;;6.30;99.90;;;;;;5032030;28;20448;-63
2021/01/28 04:12:36;;;;;;;15.30;10.50;;;6.20;99.90;;;;;;5031977;28;20460;-63
2021/01/28 04:15:03;;;;;;;14.33;12.13;;;6.20;99.90;;;;;;5032147;28;20484;-63
2021/01/28 04:17:29;;;;;;;17.13;12.27;;;6.20;99.90;;;;;;5032091;28;20811;-63
2021/01/28 04:19:56;;;;;;;14.37;11.33;;;6.20;99.90;;;;;;5031769;28;20444;-63
2021/01/28 04:22:22;;;;;;;17.37;12.30;;;6.20;99.90;;;;;;5031967;28;20445;-63
2021/01/28 04:24:48;;;;;;;14.93;11.97;;;6.10;99.90;;;;;;5031933;28;20461;-63
2021/01/28 04:27:15;;;;;;;16.80;13.83;;;6.10;99.90;;;;;;5031674;28;20499;-63
2021/01/28 04:29:41;;;;;;;20.60;15.20;;;6.10;99.90;;;;;;5031695;28;20480;-63
2021/01/28 04:32:08;;;;;;;17.90;15.07;;;6.10;99.90;;;;;;5031689;28;20456;-62
2021/01/28 04:34:34;;;;;;;18.40;12.63;;;6.10;99.90;;;;;;5031521;28;20434;-63
2021/01/28 04:37:00;;;;;;;17.53;12.93;;;6.10;99.90;;;;;;5037735;22;20509;-66
2021/01/28 04:39:27;;;;;;;17.50;13.23;;;6.00;99.90;;;;;;5003587;28;20434;-67
2021/01/28 04:41:54;;;;;;;19.27;12.90;;;6.00;99.90;;;;;;5011539;28;20442;-66
2021/01/28 04:44:21;;;;;;;21.83;13.50;;;6.00;99.90;;;;;;5011722;28;20441;-65
2021/01/28 04:46:51;;;;;;;19.50;14.10;;;6.00;99.90;;;;;;5011677;28;20466;-66
2021/01/28 04:49:19;;;;;;;18.07;12.93;;;6.00;99.90;;;;;;5011662;28;20991;-66
2021/01/28 04:51:47;;;;;;;17.90;13.70;;;5.90;99.90;;;;;;5011565;28;20796;-66
2021/01/28 04:54:22;;;;;;;19.33;12.57;;;5.90;99.90;;;;;;5011804;28;20445;-66
2021/01/28 04:56:49;;;;;;;18.97;14.33;;;6.00;99.90;;;;;;5011564;28;20475;-66
2021/01/28 04:59:20;;;;;;;14.73;13.10;;;6.00;99.90;;;;;;5011595;28;20449;-66
2021/01/28 05:01:48;;;;;;;20.00;12.13;;;5.90;99.90;;;;;;5011674;28;20776;-65
2021/01/28 05:04:17;;;;;;;21.87;12.90;;;5.90;99.90;;;;;;5011833;28;20445;-66
2021/01/28 05:06:44;;;;;;;17.73;13.37;;;5.90;99.90;;;;;;5011685;28;20462;-66
2021/01/28 05:09:13;;;;;;;14.10;11.93;;;5.90;99.90;;;;;;5011558;28;20482;-65
2021/01/28 05:11:39;;;;;;;17.73;12.97;;;5.90;99.90;;;;;;5011523;28;20954;-66
2021/01/28 05:14:16;;;;;;;15.37;12.77;;;5.90;99.90;;;;;;5011700;28;20457;-66
2021/01/28 05:16:45;;;;;;;14.97;11.60;;;5.90;99.90;;;;;;5011607;28;20461;-66
2021/01/28 05:19:33;;;;;;;13.63;11.53;;;5.80;99.90;;;;;;5011449;28;20441;-66
2021/01/28 05:22:18;;;;;;;12.83;11.40;;;5.80;99.90;;;;;;5011608;28;20457;-65
2021/01/28 05:24:46;;;;;;;16.33;11.60;;;5.70;99.90;;;;;;5011687;28;20445;-66
2021/01/28 05:27:28;;;;;;;13.10;10.70;;;5.70;99.90;;;;;;5011415;28;20577;-66
2021/01/28 05:29:58;;;;;;;11.93;10.73;;;5.70;99.90;;;;;;5011352;28;21003;-66
2021/01/28 05:32:40;;;;;;;14.03;10.50;;;5.60;99.90;;;;;;5011400;28;20500;-65
2021/01/28 05:35:24;;;;;;;17.60;12.70;;;5.60;99.90;;;;;;5011297;28;20985;-65
2021/01/28 05:38:03;;;;;;;15.13;12.00;;;5.60;99.90;;;;;;5011659;28;20457;-65
2021/01/28 05:40:30;;;;;;;15.53;10.90;;;5.60;99.90;;;;;;5011140;28;20452;-65
2021/01/28 05:42:56;;;;;;;13.30;10.63;;;5.60;99.90;;;;;;5011380;28;20446;-65
2021/01/28 05:45:33;;;;;;;11.80;10.47;;;5.60;99.90;;;;;;5011296;28;20462;-66
2021/01/28 05:48:14;;;;;;;12.50;10.27;;;5.60;99.90;;;;;;5011369;28;20477;-66
2021/01/28 05:50:41;;;;;;;10.87;9.63;;;5.50;99.90;;;;;;5013471;28;20468;-66
2021/01/28 05:53:14;;;;;;;14.57;12.33;;;5.60;99.90;;;;;;5014940;28;20446;-66
2021/01/28 05:55:41;;;;;;;13.30;10.33;;;5.50;99.90;;;;;;5014673;28;20465;-66
2021/01/28 05:58:16;;;;;;;13.90;12.00;;;5.60;99.90;;;;;;5014945;28;20927;-66
2021/01/28 06:00:49;;;;;;;11.50;9.77;;;5.60;99.90;;;;;;5014650;28;20818;-66
2021/01/28 06:03:37;;;;;;;12.90;10.60;;;5.60;99.90;;;;;;5014547;28;20472;-66
2021/01/28 06:06:20;;;;;;;10.40;8.63;;;5.50;99.90;;;;;;5014662;28;20524;-67
2021/01/28 06:08:56;;;;;;;12.40;10.00;;;5.60;99.90;;;;;;5014419;28;20516;-69
2021/01/28 06:12:02;;;;;;;14.20;10.90;;;5.60;99.90;;;;;;5014411;28;20491;-67
2021/01/28 06:14:57;;;;;;;14.20;11.13;;;5.60;99.90;;;;;;5014332;28;20963;-67
2021/01/28 06:18:00;;;;;;;12.83;11.53;;;5.60;99.90;;;;;;5012441;28;20454;-67
2021/01/28 06:20:41;;;;;;;13.70;11.57;;;5.60;99.90;;;;;;5013941;28;20445;-66
2021/01/28 06:23:24;;;;;;;11.80;10.07;;;5.60;99.90;;;;;;5014175;28;20454;-67
2021/01/28 06:26:07;;;;;;;15.03;12.30;;;5.60;99.90;;;;;;5014109;28;20469;-66
2021/01/28 06:29:05;;;;;;;12.10;10.70;;;5.60;99.90;;;;;;5013878;28;20477;-66
2021/01/28 06:31:42;;;;;;;13.43;11.83;;;5.60;99.90;;;;;;5013805;28;20528;-67
2021/01/28 06:34:22;;;;;;;13.97;11.57;;;5.60;99.90;;;;;;5014092;28;20968;-67
2021/01/28 06:37:12;;;;;;;13.60;11.57;;;5.60;99.90;;;;;;5013840;28;20477;-67
2021/01/28 06:39:42;;;;;;;13.03;11.57;;;5.50;99.90;;;;;;5013220;28;20454;-67
2021/01/28 06:42:20;;;;;;;15.13;12.67;;;5.60;99.90;;;;;;5013879;28;20446;-67
2021/01/28 06:44:54;;;;;;;12.60;10.67;;;5.60;99.90;;;;;;5013707;28;20446;-67
2021/01/28 06:47:25;;;;;;;15.80;13.37;;;5.60;99.90;;;;;;5013711;28;20453;-67
2021/01/28 06:50:01;;;;;;;14.30;10.67;;;5.60;99.90;;;;;;5013393;28;21006;-66
2021/01/28 06:52:51;;;;;;;14.20;12.63;;;5.50;99.90;;;;;;5013492;28;20445;-66
2021/01/28 06:55:30;;;;;;;16.43;11.50;;;5.50;99.90;;;;;;5013452;28;20527;-67
2021/01/28 06:58:09;;;;;;;14.93;11.77;;;5.60;99.90;;;;;;5013484;28;20446;-66
2021/01/28 07:00:41;;;;;;;14.73;11.80;;;5.50;99.90;;;;;;5012761;28;20507;-66
2021/01/28 07:03:16;;;;;;;16.20;12.63;;;5.60;99.90;;;;;;5013282;28;20446;-67
2021/01/28 07:05:59;;;;;;;13.13;11.53;;;5.60;99.90;;;;;;5013294;28;20473;-67
2021/01/28 07:08:49;;;;;;;14.07;11.17;;;5.60;99.90;;;;;;5013228;28;20644;-67
2021/01/28 07:11:31;;;;;;;18.67;13.10;;;5.60;99.90;;;;;;5013078;28;20442;-67
2021/01/28 07:14:00;;;;;;;13.57;10.20;;;5.60;99.90;;;;;;5013339;28;20442;-66
2021/01/28 07:16:32;;;;;;;15.23;11.67;;;5.60;99.90;;;;;;5012927;28;20462;-66
2021/01/28 07:19:16;;;;;;;13.33;11.87;;;5.60;99.90;;;;;;5013202;28;20441;-66
2021/01/28 07:21:47;;;;;;;13.40;11.10;;;5.60;99.90;;;;;;5012839;28;20464;-66
2021/01/28 07:24:30;;;;;;;18.57;11.27;;;5.70;99.90;;;;;;5013033;28;20446;-66
2021/01/28 07:26:59;;;;;;;13.83;10.40;;;5.70;99.90;;;;;;5013020;28;20466;-65
2021/01/28 07:29:54;;;;;;;9.37;8.30;;;5.60;99.90;;;;;;5012765;28;20509;-66
2021/01/28 07:32:50;;;;;;;13.93;10.10;;;5.60;99.90;;;;;;5012815;28;20446;-65
2021/01/28 07:35:47;;;;;;;10.60;9.57;;;5.70;99.90;;;;;;5012587;28;20493;-65
2021/01/28 07:38:48;;;;;;;11.20;9.53;;;5.70;99.90;;;;;;5012660;28;20440;-66
2021/01/28 07:41:31;;;;;;;11.87;9.63;;;5.70;99.90;;;;;;5012570;28;20811;-67
2021/01/28 07:44:36;;;;;;;11.97;10.00;;;5.70;99.90;;;;;;5012637;28;20446;-65
2021/01/28 07:47:12;;;;;;;12.93;8.63;;;5.70;99.90;;;;;;5012475;28;20461;-66
2021/01/28 07:49:38;;;;;;;10.93;8.60;;;5.70;99.90;;;;;;5012305;28;20477;-67
2021/01/28 07:52:37;;;;;;;8.13;7.33;;;5.70;99.90;;;;;;5012299;28;20450;-67
2021/01/28 07:55:04;;;;;;;9.80;8.80;;;5.70;99.90;;;;;;5012240;28;20438;-67
2021/01/28 07:57:45;;;;;;;10.57;9.23;;;5.70;99.90;;;;;;5012299;28;20470;-66
2021/01/28 08:00:15;;;;;;;10.80;9.10;;;5.60;99.90;;;;;;5012236;28;20449;-66
2021/01/28 08:02:42;;;;;;;10.00;8.83;;;5.60;99.90;;;;;;5012166;28;20446;-67
2021/01/28 08:05:12;;;;;;;12.60;9.20;;;5.70;99.90;;;;;;5012127;28;20442;-65
2021/01/28 08:07:40;;;;;;;9.60;8.30;;;5.70;99.90;;;;;;5012222;28;20442;-65
2021/01/28 08:10:20;;;;;;;9.50;7.00;;;5.60;99.90;;;;;;5011849;28;20994;-66
2021/01/28 08:12:51;;;;;;;9.30;6.87;;;5.60;99.90;;;;;;5011460;28;20442;-66
2021/01/28 08:15:22;;;;;;;10.03;9.00;;;5.60;99.90;;;;;;5011795;28;20851;-65
2021/01/28 08:17:59;;;;;;;11.50;10.17;;;5.60;99.90;;;;;;5012054;28;20458;-65
2021/01/28 08:20:28;;;;;;;9.00;6.83;;;5.70;99.90;;;;;;5011770;28;20450;-65
2021/01/28 08:22:59;;;;;;;9.43;7.63;;;5.70;99.90;;;;;;5012051;28;20819;-66
2021/01/28 08:25:29;;;;;;;9.57;7.10;;;5.70;99.90;;;;;;5011806;28;20465;-66
2021/01/28 08:27:55;;;;;;;9.77;7.60;;;5.80;99.90;;;;;;5011696;28;20457;-65
2021/01/28 08:30:26;;;;;;;9.57;8.57;;;5.80;99.90;;;;;;5011694;28;20446;-67
2021/01/28 08:32:57;;;;;;;7.10;6.47;;;5.80;99.90;;;;;;5011812;28;20453;-64
2021/01/28 08:35:27;;;;;;;8.57;7.00;;;5.80;99.90;;;;;;5011818;28;20700;-65
2021/01/28 08:38:06;;;;;;;9.73;7.00;;;5.90;99.90;;;;;;5011977;28;20450;-66
2021/01/28 08:40:35;;;;;;;7.40;6.70;;;5.90;99.90;;;;;;5011600;28;20450;-66
2021/01/28 08:43:12;;;;;;;8.63;6.57;;;5.90;99.90;;;;;;5011704;28;20450;-65
2021/01/28 08:45:40;;;;;;;8.17;6.17;;;5.80;99.90;;;;;;5011536;28;20501;-65
2021/01/28 08:48:10;;;;;;;7.70;6.30;;;5.80;99.90;;;;;;5011817;28;20845;-66
2021/01/28 08:50:38;;;;;;;7.90;6.77;;;5.80;99.90;;;;;;5011438;28;20515;-66
2021/01/28 08:53:07;;;;;;;11.60;6.30;;;5.80;99.90;;;;;;5011697;28;20946;-66
2021/01/28 08:55:38;;;;;;;9.87;5.97;;;5.80;99.90;;;;;;5011613;28;20458;-65
2021/01/28 08:58:11;;;;;;;6.50;5.87;;;5.80;99.90;;;;;;5011846;28;20537;-65
2021/01/28 09:00:43;;;;;;;8.10;6.03;;;5.80;99.90;;;;;;5011394;28;20446;-65
2021/01/28 09:03:11;;;;;;;7.60;6.90;;;5.80;99.90;;;;;;5011603;28;20815;-65
2021/01/28 09:05:37;;;;;;;6.90;6.30;;;5.80;99.90;;;;;;5011251;28;20473;-66
2021/01/28 09:08:21;;;;;;;7.27;6.00;;;5.80;99.90;;;;;;5011495;28;20971;-65
2021/01/28 09:10:47;;;;;;;6.63;6.00;;;5.80;99.90;;;;;;5011333;28;20448;-65
2021/01/28 09:13:21;;;;;;;6.00;5.40;;;5.80;99.90;;;;;;5011528;28;20441;-65
2021/01/28 09:15:49;;;;;;;5.30;4.80;;;5.90;99.90;;;;;;5011312;28;20493;-65
2021/01/28 09:18:27;;;;;;;6.33;5.77;;;5.90;99.90;;;;;;5012674;28;20445;-66
2021/01/28 09:20:54;;;;;;;6.83;6.23;;;5.90;99.90;;;;;;5015038;28;20788;-66
2021/01/28 09:23:21;;;;;;;5.67;5.13;;;5.90;99.90;;;;;;5014718;28;20812;-66
2021/01/28 09:26:08;;;;;;;5.57;5.07;;;5.80;99.90;;;;;;5016277;28;20468;-67
2021/01/28 09:28:34;;;;;;;8.60;7.07;;;5.90;99.90;;;;;;5015144;28;20477;-66
2021/01/28 09:31:19;;;;;;;9.00;7.27;;;5.90;99.90;;;;;;5014992;28;20449;-66
2021/01/28 09:33:45;;;;;;;7.10;6.40;;;5.90;99.90;;;;;;5015195;28;20449;-66
2021/01/28 09:36:16;;;;;;;9.63;6.80;;;5.90;99.90;;;;;;5014766;28;20478;-66
2021/01/28 09:38:59;;;;;;;7.27;6.57;;;5.90;99.90;;;;;;5015162;28;20822;-67
2021/01/28 09:41:28;;;;;;;5.43;4.90;;;6.00;99.90;;;;;;5014798;28;20828;-67
2021/01/28 09:43:54;;;;;;;5.80;5.33;;;6.00;99.90;;;;;;5014788;28;20507;-66
2021/01/28 09:46:29;;;;;;;6.43;5.43;;;6.00;99.90;;;;;;5014746;28;20539;-66
2021/01/28 09:49:00;;;;;;;7.00;6.30;;;6.00;99.90;;;;;;5014657;28;21080;-65
2021/01/28 09:51:32;;;;;;;6.67;6.13;;;6.00;99.90;;;;;;5014676;28;20503;-67
2021/01/28 09:54:00;;;;;;;6.40;5.90;;;6.10;99.90;;;;;;5014810;28;20449;-67
2021/01/28 09:56:27;;;;;;;5.67;5.23;;;6.00;99.90;;;;;;5014489;28;20469;-67
2021/01/28 09:58:53;;;;;;;5.03;4.63;;;6.10;99.90;;;;;;5014473;28;20442;-67
2021/01/28 10:01:19;;;;;;;4.90;4.50;;;6.20;99.90;;;;;;5014356;28;20437;-67
2021/01/28 10:03:47;;;;;;;5.43;5.00;;;6.20;99.90;;;;;;5014483;28;20449;-67
2021/01/28 10:06:13;;;;;;;4.77;4.37;;;6.10;99.90;;;;;;5014674;28;20470;-67
2021/01/28 10:08:39;;;;;;;5.50;4.97;;;6.10;99.90;;;;;;5014587;28;20612;-66
2021/01/28 10:11:06;;;;;;;4.77;4.43;;;6.20;99.90;;;;;;5014345;28;20449;-66
2021/01/28 10:13:33;;;;;;;4.83;4.43;;;6.30;99.90;;;;;;5014406;28;20536;-67
2021/01/28 10:15:59;;;;;;;4.77;4.37;;;6.30;99.90;;;;;;5014317;28;20461;-66
2021/01/28 10:18:25;;;;;;;5.47;4.87;;;6.30;99.90;;;;;;5014357;28;20492;-65
2021/01/28 10:20:52;;;;;;;4.50;4.20;;;6.30;99.90;;;;;;5014015;28;20453;-66
2021/01/28 10:23:19;;;;;;;4.77;4.37;;;6.30;99.90;;;;;;5014221;28;20935;-66
2021/01/28 10:25:45;;;;;;;4.50;4.10;;;6.40;99.90;;;;;;5014140;28;20461;-66
2021/01/28 10:28:11;;;;;;;4.17;3.97;;;6.50;99.90;;;;;;5014058;28;20457;-66
2021/01/28 10:30:37;;;;;;;4.20;3.90;;;6.50;99.90;;;;;;5013792;28;20966;-65
2021/01/28 10:33:04;;;;;;;4.90;3.97;;;6.50;99.90;;;;;;5013971;28;20450;-65
2021/01/28 10:35:32;;;;;;;3.60;3.30;;;6.50;99.90;;;;;;5013721;28;20480;-67
2021/01/28 10:38:00;;;;;;;3.40;3.20;;;6.60;99.90;;;;;;5014043;28;20523;-66
2021/01/28 10:40:27;;;;;;;5.00;4.70;;;6.70;99.90;;;;;;5013657;28;20445;-66
2021/01/28 10:42:55;;;;;;;3.97;3.70;;;6.70;99.90;;;;;;5013875;28;20496;-66
2021/01/28 10:45:24;;;;;;;4.20;3.90;;;6.80;99.90;;;;;;5013716;28;20462;-67
2021/01/28 10:47:51;;;;;;;3.80;3.60;;;6.80;99.90;;;;;;5013666;28;20445;-66
2021/01/28 10:50:17;;;;;;;3.67;3.47;;;6.90;99.90;;;;;;5013372;28;20632;-67
2021/01/28 10:52:44;;;;;;;4.37;4.07;;;6.90;99.90;;;;;;5013509;28;20446;-66
2021/01/28 10:55:12;;;;;;;4.20;3.90;;;6.90;99.90;;;;;;5013383;28;20443;-66
2021/01/28 10:57:38;;;;;;;3.73;3.57;;;7.00;99.90;;;;;;5013406;28;20496;-67
2021/01/28 11:00:06;;;;;;;3.60;3.37;;;7.10;99.90;;;;;;5013177;28;20501;-65
2021/01/28 11:02:32;;;;;;;4.20;3.90;;;7.30;99.90;;;;;;5013314;28;20446;-65
2021/01/28 11:04:59;;;;;;;3.30;3.10;;;7.50;99.90;;;;;;5013096;28;20448;-67
2021/01/28 11:07:26;;;;;;;3.70;3.40;;;7.80;99.90;;;;;;5013505;28;20548;-67
2021/01/28 11:09:52;;;;;;;4.27;3.97;;;7.80;99.90;;;;;;5012950;28;21048;-66
2021/01/28 11:12:19;;;;;;;4.10;3.90;;;7.90;99.90;;;;;;5013328;28;20446;-67
2021/01/28 11:14:45;;;;;;;4.67;4.40;;;8.00;99.90;;;;;;5013190;28;20500;-67
2021/01/28 11:17:11;;;;;;;4.27;4.03;;;7.90;99.90;;;;;;5013075;28;20470;-66
2021/01/28 11:19:37;;;;;;;5.00;4.70;;;8.00;99.90;;;;;;5012752;28;20445;-65
2021/01/28 11:22:04;;;;;;;4.37;4.17;;;8.00;99.90;;;;;;5013047;28;20449;-67
2021/01/28 11:24:30;;;;;;;5.40;5.00;;;8.20;99.90;;;;;;5012995;28;20955;-67
2021/01/28 11:26:57;;;;;;;4.53;4.33;;;8.20;99.90;;;;;;5012779;28;20477;-67
2021/01/28 11:29:24;;;;;;;4.20;4.00;;;8.20;99.90;;;;;;5012875;28;20478;-67
2021/01/28 11:31:51;;;;;;;4.23;3.93;;;8.20;99.90;;;;;;5012493;28;20504;-66
2021/01/28 11:34:17;;;;;;;4.13;3.90;;;8.10;99.90;;;;;;5012885;28;20819;-66
2021/01/28 11:36:44;;;;;;;5.33;5.03;;;8.30;99.90;;;;;;5012509;28;20512;-67
2021/01/28 11:39:11;;;;;;;3.77;3.67;;;8.40;99.90;;;;;;5012782;28;20453;-66
2021/01/28 11:41:37;;;;;;;4.77;4.37;;;8.30;99.90;;;;;;5012335;28;20446;-65
2021/01/28 11:44:03;;;;;;;4.73;4.50;;;8.50;99.90;;;;;;5012622;28;20454;-65
2021/01/28 11:46:31;;;;;;;4.30;4.00;;;8.40;99.90;;;;;;5012173;28;20492;-65
2021/01/28 11:48:57;;;;;;;4.50;4.30;;;8.60;99.90;;;;;;5011803;28;20508;-65
2021/01/28 11:51:23;;;;;;;4.63;4.37;;;8.70;99.90;;;;;;5012290;28;20453;-66
2021/01/28 11:53:49;;;;;;;4.80;4.60;;;8.80;99.90;;;;;;5012341;28;21009;-65
2021/01/28 11:56:15;;;;;;;5.87;5.57;;;8.70;99.90;;;;;;5012191;28;20477;-66
2021/01/28 11:58:42;;;;;;;3.97;3.77;;;8.70;99.90;;;;;;5012518;28;20577;-66
2021/01/28 12:01:08;;;;;;;4.33;4.23;;;8.70;99.90;;;;;;5012072;28;20456;-65
2021/01/28 12:03:35;;;;;;;4.90;4.70;;;8.70;99.90;;;;;;5012520;28;20453;-65
2021/01/28 12:06:02;;;;;;;4.80;4.37;;;8.70;99.90;;;;;;5012337;28;20546;-66
2021/01/28 12:08:28;;;;;;;4.50;4.30;;;8.70;99.90;;;;;;5012203;28;20441;-65
2021/01/28 12:10:54;;;;;;;4.73;4.40;;;8.70;99.90;;;;;;5011818;28;20446;-67
2021/01/28 12:13:20;;;;;;;5.60;5.30;;;8.50;99.90;;;;;;5012266;28;20811;-65
2021/01/28 12:15:47;;;;;;;5.47;5.20;;;8.50;99.90;;;;;;5011910;28;20469;-65
2021/01/28 12:18:13;;;;;;;5.00;4.70;;;8.50;99.90;;;;;;5012010;28;20442;-65
2021/01/28 12:20:40;;;;;;;4.50;4.23;;;8.40;99.90;;;;;;5011875;28;20814;-64
2021/01/28 12:23:06;;;;;;;4.70;4.50;;;8.40;99.90;;;;;;5012060;28;20450;-67
2021/01/28 12:25:33;;;;;;;4.53;4.30;;;8.20;99.90;;;;;;5011855;28;20489;-65
2021/01/28 12:27:59;;;;;;;5.20;4.70;;;8.20;99.90;;;;;;5011704;28;20449;-65
2021/01/28 12:30:26;;;;;;;4.80;4.40;;;8.20;99.90;;;;;;5011608;28;20482;-65
2021/01/28 12:32:53;;;;;;;4.80;4.40;;;8.00;99.90;;;;;;5011726;28;20453;-66
2021/01/28 12:35:21;;;;;;;4.10;3.80;;;8.00;99.90;;;;;;5011651;28;20477;-65
2021/01/28 12:37:48;;;;;;;3.50;3.40;;;8.10;99.90;;;;;;5011850;28;20442;-67
2021/01/28 12:40:16;;;;;;;3.63;3.53;;;8.10;99.90;;;;;;5011552;28;20500;-66
2021/01/28 12:42:43;;;;;;;4.40;4.13;;;8.10;99.90;;;;;;5011652;28;20442;-66
2021/01/28 12:45:10;;;;;;;4.27;4.07;;;8.20;99.90;;;;;;5011500;28;20449;-65
2021/01/28 12:47:36;;;;;;;8.17;5.13;;;8.30;99.90;;;;;;5011685;28;20516;-65
2021/01/28 12:50:03;;;;;;;6.33;5.20;;;8.40;99.90;;;;;;5011302;28;20855;-65
2021/01/28 12:52:29;;;;;;;5.07;4.70;;;8.50;99.90;;;;;;5011658;28;20442;-64
2021/01/28 12:54:56;;;;;;;5.10;4.90;;;8.60;99.90;;;;;;5011656;28;20974;-65
2021/01/28 12:57:23;;;;;;;4.70;4.40;;;8.80;99.90;;;;;;5011647;28;20444;-65
2021/01/28 12:59:49;;;;;;;5.03;4.73;;;8.90;99.90;;;;;;5014178;28;20453;-65
2021/01/28 13:02:15;;;;;;;5.60;5.10;;;9.00;99.90;;;;;;5015513;28;20445;-66